createdAt,value
2022-11-20T00:00:19.814Z,5.73
2022-11-20T00:02:46.450Z,5.93
2022-11-20T00:05:13.147Z,6.57
2022-11-20T00:07:40.182Z,6.20
2022-11-20T00:10:07.049Z,7.07
2022-11-20T00:12:33.733Z,6.37
2022-11-20T00:15:00.432Z,6.57
2022-11-20T00:17:27.093Z,6.93
2022-11-20T00:19:53.717Z,7.40
2022-11-20T00:22:20.394Z,7.00
2022-11-20T00:24:46.977Z,7.40
2022-11-20T00:27:14.358Z,7.73
2022-11-20T00:29:40.972Z,8.20
2022-11-20T00:32:07.643Z,7.40
2022-11-20T00:34:34.291Z,9.27
2022-11-20T00:37:00.964Z,8.17
2022-11-20T00:39:28.267Z,8.93
2022-11-20T00:41:54.871Z,8.47
2022-11-20T00:44:21.529Z,8.40
2022-11-20T00:46:48.134Z,9.93
2022-11-20T00:49:14.910Z,10.30
2022-11-20T00:51:41.494Z,9.60
2022-11-20T00:54:08.169Z,10.17
2022-11-20T00:56:34.800Z,8.87
2022-11-20T00:59:04.717Z,10.20
2022-11-20T01:01:31.480Z,11.03
2022-11-20T01:04:00.188Z,10.63
2022-11-20T01:06:32.215Z,10.97
2022-11-20T01:09:00.512Z,10.43
2022-11-20T01:11:29.217Z,9.70
2022-11-20T01:13:57.354Z,10.00
2022-11-20T01:16:30.064Z,10.80
2022-11-20T01:18:58.826Z,11.00
2022-11-20T01:21:28.183Z,10.40
2022-11-20T01:23:54.889Z,10.07
2022-11-20T01:26:24.574Z,11.47
2022-11-20T01:28:51.655Z,11.57
2022-11-20T01:31:37.778Z,11.47
2022-11-20T01:34:14.619Z,11.03
2022-11-20T01:36:41.663Z,10.90
2022-11-20T01:39:13.068Z,10.73
2022-11-20T01:41:58.871Z,10.83
2022-11-20T01:44:50.447Z,10.90
2022-11-20T01:47:22.058Z,11.77
2022-11-20T01:49:52.421Z,11.27
2022-11-20T01:52:23.058Z,11.23
2022-11-20T01:55:01.128Z,11.00
2022-11-20T01:57:30.006Z,11.77
2022-11-20T02:00:01.303Z,9.73
2022-11-20T02:02:28.107Z,10.77
2022-11-20T02:04:57.979Z,12.37
2022-11-20T02:07:24.794Z,11.17
2022-11-20T02:09:57.402Z,11.17
2022-11-20T02:12:44.141Z,9.77
2022-11-20T02:15:10.754Z,11.00
2022-11-20T02:17:37.408Z,11.00
2022-11-20T02:20:04.977Z,11.70
2022-11-20T02:22:40.090Z,10.97
2022-11-20T02:25:08.136Z,11.37
2022-11-20T02:27:35.169Z,10.40
2022-11-20T02:30:08.470Z,10.97
2022-11-20T02:32:36.871Z,12.63
2022-11-20T02:35:18.832Z,10.80
2022-11-20T02:37:46.197Z,9.90
2022-11-20T02:40:12.838Z,10.83
2022-11-20T02:42:39.467Z,9.40
2022-11-20T02:45:06.941Z,9.27
2022-11-20T02:47:33.560Z,9.37
2022-11-20T02:50:00.461Z,9.57
2022-11-20T02:52:27.228Z,9.80
2022-11-20T02:54:53.892Z,10.37
2022-11-20T02:57:20.499Z,9.70
2022-11-20T02:59:47.219Z,9.17
2022-11-20T03:02:13.825Z,9.17
2022-11-20T03:04:40.467Z,8.90
2022-11-20T03:07:07.168Z,8.97
2022-11-20T03:09:33.811Z,9.40
2022-11-20T03:12:00.443Z,10.33
2022-11-20T03:14:27.022Z,10.37
2022-11-20T03:16:53.690Z,11.33
2022-11-20T03:19:20.566Z,11.00
2022-11-20T03:21:47.487Z,10.93
2022-11-20T03:24:14.420Z,10.90
2022-11-20T03:26:41.448Z,11.37
2022-11-20T03:29:08.050Z,10.93
2022-11-20T03:31:36.786Z,11.20
2022-11-20T03:34:03.798Z,11.93
2022-11-20T03:36:30.979Z,11.80
2022-11-20T03:38:57.910Z,12.03
2022-11-20T03:41:29.400Z,11.80
2022-11-20T03:44:01.526Z,11.80
2022-11-20T03:46:28.689Z,12.90
2022-11-20T03:48:55.519Z,10.70
2022-11-20T03:51:23.280Z,12.93
2022-11-20T03:53:51.337Z,11.47
2022-11-20T03:56:20.088Z,12.00
2022-11-20T03:58:46.943Z,10.97
2022-11-20T04:01:19.163Z,11.07
2022-11-20T04:03:46.343Z,10.93
2022-11-20T04:06:15.937Z,11.67
2022-11-20T04:08:43.295Z,10.80
2022-11-20T04:11:14.171Z,11.70
2022-11-20T04:13:42.051Z,10.80
2022-11-20T04:16:09.594Z,11.27
2022-11-20T04:18:36.783Z,12.07
2022-11-20T04:21:04.659Z,10.80
2022-11-20T04:23:31.493Z,11.37
2022-11-20T04:26:11.484Z,11.70
2022-11-20T04:28:39.070Z,11.50
2022-11-20T04:31:11.181Z,10.90
2022-11-20T04:33:38.275Z,12.17
2022-11-20T04:36:14.068Z,12.03
2022-11-20T04:38:41.208Z,12.20
2022-11-20T04:41:09.858Z,12.33
2022-11-20T04:43:36.424Z,12.67
2022-11-20T04:46:03.198Z,12.67
2022-11-20T04:48:30.626Z,12.83
2022-11-20T04:50:57.559Z,11.87
2022-11-20T04:53:24.682Z,11.90
2022-11-20T04:55:51.440Z,11.87
2022-11-20T04:58:18.034Z,12.53
2022-11-20T05:00:44.660Z,13.23
2022-11-20T05:03:11.277Z,12.83
2022-11-20T05:05:37.887Z,11.93
2022-11-20T05:08:04.722Z,11.77
2022-11-20T05:10:31.317Z,12.03
2022-11-20T05:12:58.139Z,12.80
2022-11-20T05:15:27.430Z,11.47
2022-11-20T05:17:54.172Z,12.37
2022-11-20T05:20:20.918Z,12.10
2022-11-20T05:22:47.534Z,12.47
2022-11-20T05:25:14.203Z,12.43
2022-11-20T05:27:40.801Z,13.03
2022-11-20T05:30:07.969Z,13.77
2022-11-20T05:32:34.546Z,13.23
2022-11-20T05:35:01.116Z,13.40
2022-11-20T05:37:27.696Z,12.70
2022-11-20T05:39:54.301Z,13.33
2022-11-20T05:42:32.950Z,12.87
2022-11-20T05:45:00.736Z,13.87
2022-11-20T05:47:32.860Z,13.07
2022-11-20T05:49:59.481Z,13.43
2022-11-20T05:52:26.133Z,12.70
2022-11-20T05:54:52.771Z,12.50
2022-11-20T05:57:19.399Z,12.13
2022-11-20T05:59:46.071Z,12.50
2022-11-20T06:02:12.713Z,12.43
2022-11-20T06:04:39.622Z,12.23
2022-11-20T06:07:07.380Z,13.23
2022-11-20T06:09:34.386Z,13.00
2022-11-20T06:12:01.082Z,13.03
2022-11-20T06:14:27.671Z,13.27
2022-11-20T06:16:54.335Z,11.30
2022-11-20T06:19:21.139Z,13.83
2022-11-20T06:21:49.901Z,12.67
2022-11-20T06:24:17.066Z,12.90
2022-11-20T06:26:43.909Z,13.73
2022-11-20T06:29:10.861Z,12.67
2022-11-20T06:31:38.882Z,14.87
2022-11-20T06:34:07.113Z,13.53
2022-11-20T06:36:34.293Z,14.77
2022-11-20T06:39:01.632Z,14.93
2022-11-20T06:41:29.059Z,13.30
2022-11-20T06:43:55.829Z,14.03
2022-11-20T06:46:22.658Z,12.93
2022-11-20T06:48:50.173Z,16.80
2022-11-20T06:51:17.382Z,45.20
2022-11-20T06:53:47.069Z,17.83
2022-11-20T06:56:13.829Z,23.43
2022-11-20T06:58:40.600Z,25.53
2022-11-20T07:01:10.679Z,14.30
2022-11-20T07:03:37.731Z,14.80
2022-11-20T07:06:05.324Z,17.60
2022-11-20T07:08:32.157Z,14.97
2022-11-20T07:11:04.167Z,12.53
2022-11-20T07:13:30.982Z,13.10
2022-11-20T07:16:02.475Z,14.77
2022-11-20T07:18:29.302Z,13.10
2022-11-20T07:20:56.087Z,14.03
2022-11-20T07:23:22.911Z,14.10
2022-11-20T07:25:49.627Z,14.20
2022-11-20T07:28:16.415Z,13.20
2022-11-20T07:30:43.153Z,13.73
2022-11-20T07:33:09.869Z,14.47
2022-11-20T07:35:36.953Z,24.70
2022-11-20T07:38:03.678Z,18.50
2022-11-20T07:40:30.489Z,18.87
2022-11-20T07:42:57.399Z,16.77
2022-11-20T07:45:25.116Z,13.97
2022-11-20T07:47:54.820Z,15.00
2022-11-20T07:50:21.531Z,15.00
2022-11-20T07:52:48.546Z,16.13
2022-11-20T07:55:15.836Z,15.00
2022-11-20T07:57:42.556Z,17.40
2022-11-20T08:00:11.549Z,16.73
2022-11-20T08:02:40.389Z,12.97
2022-11-20T08:05:08.071Z,14.33
2022-11-20T08:07:43.125Z,16.30
2022-11-20T08:10:12.108Z,14.20
2022-11-20T08:13:08.384Z,16.37
2022-11-20T08:15:35.855Z,14.53
2022-11-20T08:18:29.928Z,14.67
2022-11-20T08:20:54.461Z,13.47
2022-11-20T08:23:21.141Z,14.43
2022-11-20T08:25:50.790Z,15.10
2022-11-20T08:28:21.393Z,15.27
2022-11-20T08:30:49.804Z,14.27
2022-11-20T08:33:18.280Z,14.63
2022-11-20T08:35:45.316Z,14.53
2022-11-20T08:38:12.212Z,14.47
2022-11-20T08:40:41.954Z,14.67
2022-11-20T08:43:08.726Z,14.03
2022-11-20T08:45:35.764Z,13.97
2022-11-20T08:48:03.998Z,15.87
2022-11-20T08:50:33.539Z,13.93
2022-11-20T08:53:07.375Z,15.03
2022-11-20T08:55:36.593Z,14.75
2022-11-20T08:58:07.162Z,14.00
2022-11-20T09:00:34.227Z,15.53
2022-11-20T09:03:02.345Z,14.83
2022-11-20T09:05:29.673Z,15.47
2022-11-20T09:08:00.190Z,14.47
2022-11-20T09:10:27.621Z,14.50
2022-11-20T09:12:56.336Z,16.77
2022-11-20T09:15:24.214Z,14.83
2022-11-20T09:17:59.323Z,15.30
2022-11-20T09:20:26.957Z,14.07
2022-11-20T09:22:53.770Z,12.37
2022-11-20T09:25:20.552Z,13.43
2022-11-20T09:27:47.435Z,13.57
2022-11-20T09:30:15.299Z,13.67
2022-11-20T09:32:42.822Z,13.47
2022-11-20T09:35:11.919Z,13.30
2022-11-20T09:37:39.118Z,12.77
2022-11-20T09:40:06.299Z,12.73
2022-11-20T09:42:42.900Z,13.67
2022-11-20T09:45:34.492Z,13.57
2022-11-20T09:48:12.115Z,13.40
2022-11-20T09:50:55.571Z,14.63
2022-11-20T09:53:44.060Z,12.60
2022-11-20T09:56:12.506Z,15.00
2022-11-20T09:58:44.123Z,25.07
2022-11-20T10:01:14.110Z,16.83
2022-11-20T10:03:51.829Z,15.30
2022-11-20T10:06:23.035Z,14.00
2022-11-20T10:08:59.165Z,13.87
2022-11-20T10:11:36.655Z,14.60
2022-11-20T10:14:13.699Z,12.87
2022-11-20T10:17:01.783Z,12.70
2022-11-20T10:19:34.492Z,11.80
2022-11-20T10:22:23.227Z,13.40
2022-11-20T10:25:11.843Z,19.50
2022-11-20T10:27:54.329Z,14.87
2022-11-20T10:30:23.235Z,12.23
2022-11-20T10:32:53.655Z,13.03
2022-11-20T10:35:23.664Z,11.13
2022-11-20T10:38:00.971Z,12.23
2022-11-20T10:40:42.985Z,12.27
2022-11-20T10:43:30.891Z,12.77
2022-11-20T10:46:00.125Z,10.80
2022-11-20T10:48:28.336Z,10.67
2022-11-20T10:51:04.956Z,11.60
2022-11-20T10:53:43.259Z,13.37
2022-11-20T10:56:21.144Z,12.93
2022-11-20T10:59:02.456Z,13.23
2022-11-20T11:01:29.619Z,12.13
2022-11-20T11:03:57.076Z,11.57
2022-11-20T11:06:29.690Z,11.30
2022-11-20T11:08:58.224Z,11.13
2022-11-20T11:11:28.514Z,11.00
2022-11-20T11:14:06.623Z,12.23
2022-11-20T11:16:33.634Z,18.43
2022-11-20T11:19:08.442Z,19.77
2022-11-20T11:21:35.355Z,14.60
2022-11-20T11:24:27.085Z,12.90
2022-11-20T11:26:53.995Z,12.10
2022-11-20T11:29:21.172Z,10.57
2022-11-20T11:31:48.207Z,10.67
2022-11-20T11:34:16.822Z,12.57
2022-11-20T11:36:53.329Z,11.03
2022-11-20T11:39:21.441Z,11.90
2022-11-20T11:41:48.691Z,11.77
2022-11-20T11:44:41.847Z,13.57
2022-11-20T11:47:23.290Z,12.47
2022-11-20T11:49:50.069Z,19.23
2022-11-20T11:52:22.405Z,12.03
2022-11-20T11:54:53.790Z,11.93
2022-11-20T11:57:50.325Z,14.80
2022-11-20T12:00:20.138Z,12.03
2022-11-20T12:02:46.732Z,11.73
2022-11-20T12:05:20.841Z,15.07
2022-11-20T12:07:55.397Z,11.55
2022-11-20T12:10:25.092Z,11.90
2022-11-20T12:12:59.697Z,10.80
2022-11-20T12:15:31.505Z,10.77
2022-11-20T12:17:58.194Z,9.87
2022-11-20T12:20:28.487Z,10.80
2022-11-20T12:23:07.914Z,10.90
2022-11-20T12:25:39.439Z,11.10
2022-11-20T12:28:25.219Z,10.70
2022-11-20T12:31:09.040Z,9.90
2022-11-20T12:33:54.214Z,9.75
2022-11-20T12:36:26.819Z,10.60
2022-11-20T12:39:04.552Z,10.10
2022-11-20T12:42:08.956Z,10.20
2022-11-20T12:45:11.883Z,9.30
2022-11-20T12:48:15.956Z,10.20
2022-11-20T12:51:17.694Z,9.47
2022-11-20T12:54:00.700Z,10.27
2022-11-20T12:57:07.739Z,11.13
2022-11-20T12:59:52.613Z,10.50
2022-11-20T13:02:46.596Z,12.03
2022-11-20T13:05:30.271Z,11.77
2022-11-20T13:07:57.728Z,25.10
2022-11-20T13:10:43.065Z,12.27
2022-11-20T13:13:28.052Z,10.80
2022-11-20T13:16:14.393Z,10.80
2022-11-20T13:18:43.599Z,11.97
2022-11-20T13:21:36.296Z,11.20
2022-11-20T13:24:24.641Z,10.23
2022-11-20T13:27:13.653Z,11.03
2022-11-20T13:29:44.997Z,10.70
2022-11-20T13:32:14.529Z,11.37
2022-11-20T13:34:55.289Z,9.30
2022-11-20T13:37:36.709Z,9.13
2022-11-20T13:40:13.715Z,9.17
2022-11-20T13:42:43.345Z,9.80
2022-11-20T13:45:12.657Z,8.93
2022-11-20T13:47:49.129Z,8.43
2022-11-20T13:50:16.021Z,8.60
2022-11-20T13:53:13.586Z,7.50
2022-11-20T13:56:05.261Z,8.73
2022-11-20T13:58:44.389Z,8.40
2022-11-20T14:01:16.511Z,9.33
2022-11-20T14:04:05.164Z,8.37
2022-11-20T14:06:32.659Z,13.30
2022-11-20T14:09:00.008Z,12.90
2022-11-20T14:11:31.353Z,12.93
2022-11-20T14:14:17.310Z,11.60
2022-11-20T14:16:46.666Z,12.17
2022-11-20T14:19:22.323Z,11.03
2022-11-20T14:21:50.701Z,9.93
2022-11-20T14:24:22.493Z,9.60
2022-11-20T14:26:50.258Z,9.37
2022-11-20T14:29:19.851Z,10.13
2022-11-20T14:31:52.715Z,9.87
2022-11-20T14:34:26.623Z,10.63
2022-11-20T14:36:57.155Z,11.70
2022-11-20T14:39:38.326Z,11.97
2022-11-20T14:42:16.348Z,10.60
2022-11-20T14:44:43.291Z,9.57
2022-11-20T14:47:12.914Z,10.03
2022-11-20T14:49:39.813Z,10.43
2022-11-20T14:52:21.316Z,10.77
2022-11-20T14:54:53.003Z,10.93
2022-11-20T14:57:23.934Z,10.73
2022-11-20T14:59:50.568Z,10.57
2022-11-20T15:02:17.354Z,10.90
2022-11-20T15:04:51.648Z,12.80
2022-11-20T15:10:06.791Z,12.90
2022-11-20T15:12:35.310Z,11.10
2022-11-20T15:15:02.799Z,11.13
2022-11-20T15:17:30.031Z,9.77
2022-11-20T15:19:56.809Z,12.73
2022-11-20T15:22:23.413Z,11.57
2022-11-20T15:24:50.063Z,10.17
2022-11-20T15:27:16.749Z,11.27
2022-11-20T15:29:43.453Z,10.10
2022-11-20T15:32:13.412Z,10.23
2022-11-20T15:34:40.480Z,10.23
2022-11-20T15:37:07.084Z,10.77
2022-11-20T15:39:33.693Z,8.93
2022-11-20T15:42:00.269Z,10.43
2022-11-20T15:44:27.020Z,9.03
2022-11-20T15:46:53.632Z,11.20
2022-11-20T15:49:20.357Z,12.40
2022-11-20T15:51:50.859Z,12.30
2022-11-20T15:54:21.443Z,14.50
2022-11-20T15:56:49.694Z,12.33
2022-11-20T15:59:16.550Z,13.80
2022-11-20T16:01:43.499Z,14.00
2022-11-20T16:04:15.588Z,12.20
2022-11-20T16:06:42.240Z,12.20
2022-11-20T16:09:09.178Z,10.73
2022-11-20T16:11:38.663Z,9.93
2022-11-20T16:14:25.104Z,12.43
2022-11-20T16:16:52.226Z,9.33
2022-11-20T16:19:19.130Z,9.03
2022-11-20T16:21:46.042Z,9.50
2022-11-20T16:24:14.671Z,10.40
2022-11-20T16:26:41.739Z,11.23
2022-11-20T16:29:08.477Z,10.13
2022-11-20T16:31:35.196Z,10.10
2022-11-20T16:34:10.124Z,9.33
2022-11-20T16:36:40.697Z,10.53
2022-11-20T16:39:07.284Z,9.60
2022-11-20T16:41:35.009Z,10.37
2022-11-20T16:44:04.007Z,10.30
2022-11-20T16:46:31.974Z,10.53
2022-11-20T16:49:00.757Z,9.50
2022-11-20T16:51:29.050Z,9.77
2022-11-20T16:53:58.606Z,10.53
2022-11-20T16:56:27.198Z,9.77
2022-11-20T16:58:56.145Z,10.70
2022-11-20T17:01:24.673Z,10.37
2022-11-20T17:04:00.126Z,9.43
2022-11-20T17:06:29.220Z,9.37
2022-11-20T17:08:56.346Z,8.97
2022-11-20T17:11:23.381Z,9.13
2022-11-20T17:13:50.238Z,9.70
2022-11-20T17:16:19.373Z,9.27
2022-11-20T17:18:46.661Z,9.83
2022-11-20T17:21:13.807Z,9.70
2022-11-20T17:23:42.825Z,9.10
2022-11-20T17:26:10.762Z,9.77
2022-11-20T17:28:38.299Z,9.50
2022-11-20T17:31:07.730Z,8.70
2022-11-20T17:33:36.110Z,10.27
2022-11-20T17:36:03.390Z,10.90
2022-11-20T17:38:30.165Z,11.93
2022-11-20T17:41:08.720Z,12.27
2022-11-20T17:43:37.133Z,9.33
2022-11-20T17:46:08.192Z,10.17
2022-11-20T17:48:35.582Z,10.40
2022-11-20T17:51:04.354Z,10.73
2022-11-20T17:53:36.284Z,9.83
2022-11-20T17:56:22.919Z,10.00
2022-11-20T17:58:49.652Z,12.77
2022-11-20T18:01:16.563Z,11.53
2022-11-20T18:03:43.442Z,9.77
2022-11-20T18:06:12.384Z,10.13
2022-11-20T18:08:39.651Z,9.57
2022-11-20T18:11:21.302Z,10.43
2022-11-20T18:14:08.689Z,10.63
2022-11-20T18:16:43.937Z,13.10
2022-11-20T18:19:13.882Z,11.80
2022-11-20T18:21:40.901Z,13.03
2022-11-20T18:24:08.121Z,12.07
2022-11-20T18:26:36.080Z,12.03
2022-11-20T18:29:07.418Z,12.90
2022-11-20T18:31:34.537Z,12.57
2022-11-20T18:34:01.250Z,11.47
2022-11-20T18:36:29.941Z,11.70
2022-11-20T18:38:58.175Z,11.90
2022-11-20T18:42:02.283Z,11.63
2022-11-20T18:44:49.469Z,12.77
2022-11-20T18:47:19.359Z,12.43
2022-11-20T18:49:52.494Z,10.90
2022-11-20T18:52:27.706Z,12.33
2022-11-20T18:54:54.739Z,12.03
2022-11-20T18:57:24.004Z,10.80
2022-11-20T18:59:51.139Z,11.43
2022-11-20T19:02:20.213Z,12.23
2022-11-20T19:04:47.235Z,12.23
2022-11-20T19:07:28.295Z,13.23
2022-11-20T19:10:11.979Z,10.53
2022-11-20T19:12:38.643Z,10.57
2022-11-20T19:15:05.687Z,11.67
2022-11-20T19:17:33.479Z,11.00
2022-11-20T19:20:00.385Z,11.17
2022-11-20T19:22:27.053Z,11.70
2022-11-20T19:24:53.748Z,13.60
2022-11-20T19:27:20.365Z,13.17
2022-11-20T19:29:47.138Z,11.17
2022-11-20T19:32:13.801Z,11.30
2022-11-20T19:34:40.539Z,12.33
2022-11-20T19:37:07.235Z,11.80
2022-11-20T19:39:35.534Z,10.43
2022-11-20T19:42:02.666Z,11.20
2022-11-20T19:44:29.327Z,11.50
2022-11-20T19:46:57.469Z,9.90
2022-11-20T19:49:24.217Z,11.03
2022-11-20T19:51:51.250Z,11.90
2022-11-20T19:54:17.888Z,11.83
2022-11-20T19:56:45.510Z,10.93
2022-11-20T19:59:13.223Z,11.37
2022-11-20T20:01:39.916Z,11.73
2022-11-20T20:04:07.074Z,11.60
2022-11-20T20:06:35.696Z,13.77
2022-11-20T20:09:06.127Z,12.17
2022-11-20T20:11:34.222Z,11.30
2022-11-20T20:14:02.523Z,12.80
2022-11-20T20:16:29.215Z,11.40
2022-11-20T20:18:57.458Z,10.77
2022-11-20T20:21:24.540Z,11.10
2022-11-20T20:23:53.547Z,12.77
2022-11-20T20:26:21.503Z,12.03
2022-11-20T20:28:48.286Z,13.13
2022-11-20T20:31:17.632Z,12.73
2022-11-20T20:33:44.543Z,11.53
2022-11-20T20:36:13.173Z,11.70
2022-11-20T20:38:39.785Z,11.93
2022-11-20T20:41:06.499Z,12.53
2022-11-20T20:43:53.054Z,11.80
2022-11-20T20:46:20.194Z,11.23
2022-11-20T20:48:51.495Z,11.57
2022-11-20T20:51:21.809Z,11.60
2022-11-20T20:53:48.605Z,11.63
2022-11-20T20:56:15.262Z,12.40
2022-11-20T20:58:42.020Z,12.70
2022-11-20T21:01:11.151Z,11.03
2022-11-20T21:03:37.883Z,12.27
2022-11-20T21:06:05.748Z,12.97
2022-11-20T21:08:32.881Z,11.67
2022-11-20T21:11:07.065Z,12.33
2022-11-20T21:13:34.597Z,10.38
2022-11-20T21:16:02.041Z,12.20
2022-11-20T21:18:28.849Z,11.43
2022-11-20T21:21:14.427Z,12.03
2022-11-20T21:23:43.864Z,13.07
2022-11-20T21:26:11.179Z,12.90
2022-11-20T21:28:38.072Z,11.47
2022-11-20T21:31:08.701Z,12.57
2022-11-20T21:33:39.637Z,12.00
2022-11-20T21:36:07.370Z,11.63
2022-11-20T21:38:35.324Z,11.57
2022-11-20T21:41:06.261Z,12.80
2022-11-20T21:43:32.908Z,11.33
2022-11-20T21:46:03.481Z,12.80
2022-11-20T21:48:31.892Z,12.10
2022-11-20T21:51:16.665Z,13.67
2022-11-20T21:53:44.398Z,11.40
2022-11-20T21:56:16.483Z,12.63
2022-11-20T21:58:46.988Z,12.63
2022-11-20T22:01:25.843Z,11.13
2022-11-20T22:07:05.778Z,11.67
2022-11-20T22:09:34.861Z,11.70
2022-11-20T22:15:09.459Z,11.67
2022-11-20T22:18:05.324Z,13.07
2022-11-20T22:21:27.308Z,11.60
2022-11-20T22:24:19.810Z,12.37
2022-11-20T22:27:08.047Z,12.03
2022-11-20T22:29:36.765Z,10.70
2022-11-20T22:32:04.255Z,12.03
2022-11-20T22:34:40.312Z,12.43
2022-11-20T22:37:53.821Z,11.53
2022-11-20T22:40:35.835Z,12.03
2022-11-20T22:43:08.998Z,12.05
2022-11-20T22:45:51.595Z,11.33
2022-11-20T22:48:33.129Z,12.10
2022-11-20T22:51:33.201Z,12.07
2022-11-20T22:54:01.082Z,12.03
2022-11-20T22:56:33.000Z,11.70
2022-11-20T22:59:11.625Z,12.73
2022-11-20T23:02:20.002Z,11.87
2022-11-20T23:04:55.535Z,11.97
2022-11-20T23:07:40.741Z,12.33
2022-11-20T23:10:30.039Z,12.57
2022-11-20T23:13:11.548Z,12.17
2022-11-20T23:15:38.505Z,13.17
2022-11-20T23:18:06.067Z,13.57
2022-11-20T23:20:37.033Z,12.40
2022-11-20T23:23:16.850Z,11.70
2022-11-20T23:25:55.996Z,11.83
2022-11-20T23:31:13.854Z,10.93
2022-11-20T23:34:16.882Z,11.53
2022-11-20T23:36:50.140Z,11.23
2022-11-20T23:39:20.335Z,10.70
2022-11-20T23:42:11.454Z,10.37
2022-11-20T23:45:02.519Z,11.70
2022-11-20T23:47:34.641Z,12.55
2022-11-20T23:50:11.938Z,10.97
2022-11-20T23:52:52.030Z,12.93
2022-11-20T23:55:35.951Z,11.23
2022-11-20T23:58:03.999Z,10.93
